createdAt,value
2023-12-22T00:00:42.025Z,94911.52
2023-12-22T00:01:42.063Z,94921
2023-12-22T00:02:42.028Z,94915.79
2023-12-22T00:03:42.649Z,94917.14
2023-12-22T00:04:42.087Z,94903.6
2023-12-22T00:05:42.100Z,94902.34
2023-12-22T00:06:42.102Z,94906.33
2023-12-22T00:07:42.146Z,94906.33
2023-12-22T00:08:42.140Z,94902.72
2023-12-22T00:09:42.327Z,94902.89
2023-12-22T00:10:42.160Z,94902.92
2023-12-22T00:11:42.688Z,94894.08
2023-12-22T00:12:42.758Z,94892.54
2023-12-22T00:13:42.770Z,94895.97
2023-12-22T00:14:42.733Z,94894.33
2023-12-22T00:15:42.731Z,94891.62
2023-12-22T00:16:42.778Z,94889.31
2023-12-22T00:17:42.773Z,94885.31
2023-12-22T00:18:42.937Z,94888.23
2023-12-22T00:19:43.107Z,94884.98
2023-12-22T00:20:42.896Z,94886.41
2023-12-22T00:21:42.902Z,94876.08
2023-12-22T00:22:42.988Z,94888.1
2023-12-22T00:23:42.892Z,94883.97
2023-12-22T00:24:42.895Z,94884.69
2023-12-22T00:25:43.004Z,94881.66
2023-12-22T00:26:42.909Z,94880.18
2023-12-22T00:27:42.978Z,94885.11
2023-12-22T00:28:43.016Z,94884.29
2023-12-22T00:29:43.593Z,94882.89
2023-12-22T00:30:43.569Z,94885.76
2023-12-22T00:31:43.631Z,94887.14
2023-12-22T00:32:43.726Z,94877
2023-12-22T00:33:43.682Z,94879.75
2023-12-22T00:34:43.628Z,94869.59
2023-12-22T00:35:43.660Z,94864.51
2023-12-22T00:36:43.645Z,94860.45
2023-12-22T00:37:43.741Z,94867.57
2023-12-22T00:38:43.691Z,94860.8
2023-12-22T00:39:43.700Z,94850.47
2023-12-22T00:40:43.818Z,94856.67
2023-12-22T00:41:43.730Z,94854.34
2023-12-22T00:42:43.765Z,94859.55
2023-12-22T00:43:43.815Z,94864.05
2023-12-22T00:44:43.776Z,94855.11
2023-12-22T00:45:43.804Z,94853.94
2023-12-22T00:46:43.900Z,94857.12
2023-12-22T00:47:43.837Z,94841.77
2023-12-22T00:48:43.852Z,94848.21
2023-12-22T00:49:43.903Z,94853.46
2023-12-22T00:50:43.889Z,94837.78
2023-12-22T00:51:43.890Z,94839.27
2023-12-22T00:52:43.980Z,94845.55
2023-12-22T00:53:43.985Z,94850.09
2023-12-22T00:54:43.958Z,94838.13
2023-12-22T00:55:44.538Z,94833.3
2023-12-22T00:56:44.471Z,94836.16
2023-12-22T00:57:44.541Z,94843.66
2023-12-22T00:58:47.766Z,94833.38
2023-12-22T00:59:47.952Z,94835.83
2023-12-22T01:00:48.118Z,94829.37
2023-12-22T01:01:48.059Z,94829.14
2023-12-22T01:02:47.997Z,94822.77
2023-12-22T01:03:48.007Z,94829.8
2023-12-22T01:04:48.245Z,94829.88
2023-12-22T01:05:48.212Z,94825.64
2023-12-22T01:06:48.092Z,94824
2023-12-22T01:07:48.284Z,94826.55
2023-12-22T01:08:48.114Z,94823.92
2023-12-22T01:09:48.125Z,94820.66
2023-12-22T01:10:48.339Z,94814.14
2023-12-22T01:11:48.166Z,94813.23
2023-12-22T01:12:48.616Z,94819.2
2023-12-22T01:13:48.319Z,94816.84
2023-12-22T01:14:48.201Z,94816.12
2023-12-22T01:15:48.206Z,94817.98
2023-12-22T01:16:48.257Z,94801.97
2023-12-22T01:17:48.565Z,94814.48
2023-12-22T01:18:48.334Z,94806.16
2023-12-22T01:19:48.291Z,94808.66
2023-12-22T01:20:48.301Z,94807.2
2023-12-22T01:21:50.975Z,94803.86
2023-12-22T01:22:48.838Z,94801.43
2023-12-22T01:23:48.744Z,94793.11
2023-12-22T01:24:48.767Z,94797.58
2023-12-22T01:25:48.821Z,94793.59
2023-12-22T01:26:48.807Z,94795.53
2023-12-22T01:27:49.002Z,94790.66
2023-12-22T01:28:48.844Z,94788.44
2023-12-22T01:29:48.846Z,94789.03
2023-12-22T01:30:48.872Z,94793.73
2023-12-22T01:31:48.968Z,94789.74
2023-12-22T01:32:48.915Z,94791.05
2023-12-22T01:33:48.959Z,94786.48
2023-12-22T01:34:48.927Z,94783.55
2023-12-22T01:35:48.950Z,94770.16
2023-12-22T01:36:49.001Z,94775.8
2023-12-22T01:37:49.206Z,94769.67
2023-12-22T01:38:49.013Z,94774.33
2023-12-22T01:39:49.478Z,94770.66
2023-12-22T01:40:49.503Z,94768.3
2023-12-22T01:41:49.524Z,94767.32
2023-12-22T01:42:49.512Z,94769.19
2023-12-22T01:43:49.520Z,94770.81
2023-12-22T01:44:49.512Z,94764.12
2023-12-22T01:45:51.052Z,94763.98
2023-12-22T01:46:50.751Z,94759.48
2023-12-22T01:47:50.036Z,94762.35
2023-12-22T01:48:49.684Z,94754.91
2023-12-22T01:49:49.647Z,94756.62
2023-12-22T01:50:50.565Z,94752.56
2023-12-22T01:51:50.291Z,94753.77
2023-12-22T01:52:49.697Z,94752.54
2023-12-22T01:53:49.772Z,94749.7
2023-12-22T01:54:50.592Z,94747.08
2023-12-22T01:55:50.979Z,94751.16
2023-12-22T01:56:49.895Z,94749.36
2023-12-22T01:57:50.327Z,94754.87
2023-12-22T01:58:51.665Z,94750.05
2023-12-22T01:59:50.512Z,94748.01
2023-12-22T02:00:50.036Z,94739.33
2023-12-22T02:01:49.949Z,94737.86
2023-12-22T02:02:49.880Z,94741.95
2023-12-22T02:03:51.582Z,94731.33
2023-12-22T02:04:50.063Z,94732.14
2023-12-22T02:05:50.322Z,94733.55
2023-12-22T02:06:50.061Z,94733.12
2023-12-22T02:07:50.346Z,94732.89
2023-12-22T02:08:50.315Z,94733.78
2023-12-22T02:09:49.954Z,94732.31
2023-12-22T02:10:49.993Z,94732.08
2023-12-22T02:11:49.991Z,94730.13
2023-12-22T02:12:50.684Z,94732.81
2023-12-22T02:13:50.422Z,94731.33
2023-12-22T02:14:50.036Z,94719.92
2023-12-22T02:15:54.247Z,94730.94
2023-12-22T02:16:54.896Z,94725.23
2023-12-22T02:18:56.263Z,94728.67
2023-12-22T02:19:55.693Z,94728.66
2023-12-22T02:20:54.878Z,94725.5
2023-12-22T02:22:56.428Z,94723.92
2023-12-22T02:23:56.239Z,94719.27
2023-12-22T02:24:56.321Z,94720.09
2023-12-22T02:26:09.223Z,94719.67
2023-12-22T02:27:04.730Z,94716.84
2023-12-22T02:28:04.657Z,94713.58
2023-12-22T02:29:01.775Z,94716.26
2023-12-22T02:32:08.454Z,94704.33
2023-12-22T02:33:08.440Z,94707.2
2023-12-22T02:34:08.468Z,94716.02
2023-12-22T02:35:10.033Z,94714.56
2023-12-22T02:36:08.523Z,94705.17
2023-12-22T02:37:08.947Z,94708.77
2023-12-22T02:38:07.785Z,94706.23
2023-12-22T02:39:08.259Z,94704.12
2023-12-22T02:40:08.200Z,94703.4
2023-12-22T02:41:07.785Z,94711.22
2023-12-22T02:42:08.138Z,94703.96
2023-12-22T02:43:07.718Z,94707.48
2023-12-22T02:44:07.604Z,94707.56
2023-12-22T02:45:13.439Z,94706.36
2023-12-22T02:46:15.673Z,94702.33
2023-12-22T02:47:12.446Z,94709.85
2023-12-22T02:48:12.635Z,94701.53
2023-12-22T02:49:12.558Z,94707.17
2023-12-22T02:50:14.037Z,94699.96
2023-12-22T02:51:12.544Z,94704.14
2023-12-22T02:52:12.538Z,94701.11
2023-12-22T02:53:12.717Z,94703.39
2023-12-22T02:54:12.565Z,94699.98
2023-12-22T02:55:12.829Z,94695.41
2023-12-22T02:56:12.580Z,94696.8
2023-12-22T02:57:12.578Z,94695.81
2023-12-22T02:58:15.509Z,94692.4
2023-12-22T02:59:12.758Z,94698.69
2023-12-22T03:00:12.860Z,94693.37
2023-12-22T03:01:12.640Z,94687.97
2023-12-22T03:02:12.678Z,94687.41
2023-12-22T03:03:12.713Z,94682.42
2023-12-22T03:04:12.716Z,94676.72
2023-12-22T03:05:12.803Z,94683.33
2023-12-22T03:06:12.763Z,94685.87
2023-12-22T03:07:13.177Z,94684.7
2023-12-22T03:08:12.798Z,94681.03
2023-12-22T03:09:12.820Z,94688.23
2023-12-22T03:10:12.842Z,94679.91
2023-12-22T03:11:12.817Z,94684
2023-12-22T03:12:12.914Z,94670.12
2023-12-22T03:13:13.489Z,94674.36
2023-12-22T03:14:12.887Z,94674.37
2023-12-22T03:15:12.927Z,94680.89
2023-12-22T03:16:13.065Z,94673.78
2023-12-22T03:17:13.082Z,94674.27
2023-12-22T03:18:13.039Z,94671.98
2023-12-22T03:19:13.014Z,94673.45
2023-12-22T03:20:13.054Z,94672.06
2023-12-22T03:21:19.192Z,94667.57
2023-12-22T03:22:15.441Z,94671.48
2023-12-22T03:23:15.424Z,94672.55
2023-12-22T03:24:15.441Z,94672.55
2023-12-22T03:25:15.509Z,94670.2
2023-12-22T03:26:15.458Z,94667.73
2023-12-22T03:27:15.473Z,94672.55
2023-12-22T03:28:15.621Z,94676.8
2023-12-22T03:29:15.708Z,94672.8
2023-12-22T03:30:15.748Z,94667.91
2023-12-22T03:31:15.530Z,94664.31
2023-12-22T03:32:15.524Z,94668.81
2023-12-22T03:33:15.605Z,94661.3
2023-12-22T03:34:15.619Z,94655.5
2023-12-22T03:35:15.581Z,94663
2023-12-22T03:36:15.589Z,94664.48
2023-12-22T03:37:15.642Z,94668.97
2023-12-22T03:38:15.617Z,94662.86
2023-12-22T03:39:18.420Z,94665.7
2023-12-22T03:40:15.837Z,94662.27
2023-12-22T03:41:15.672Z,94668.98
2023-12-22T03:42:15.688Z,94671.11
2023-12-22T03:43:15.768Z,94673.23
2023-12-22T03:44:15.729Z,94673.7
2023-12-22T03:45:15.774Z,94675.75
2023-12-22T03:46:15.847Z,94681.47
2023-12-22T03:47:15.774Z,94670.61
2023-12-22T03:48:15.924Z,94672.74
2023-12-22T03:49:15.870Z,94673.72
2023-12-22T03:50:15.836Z,94671.84
2023-12-22T03:51:15.814Z,94671.52
2023-12-22T03:52:15.968Z,94675.6
2023-12-22T03:53:15.834Z,94673.85
2023-12-22T03:54:15.846Z,94671.97
2023-12-22T03:55:15.937Z,94670.19
2023-12-22T03:56:15.869Z,94666.94
2023-12-22T03:57:15.896Z,94674.68
2023-12-22T03:58:15.973Z,94667.5
2023-12-22T03:59:15.996Z,94671.43
2023-12-22T04:00:16.444Z,94672
2023-12-22T04:01:16.083Z,94664.42
2023-12-22T04:02:15.969Z,94669.55
2023-12-22T04:03:15.957Z,94673.06
2023-12-22T04:04:15.995Z,94675.09
2023-12-22T04:05:16.000Z,94669.22
2023-12-22T04:06:16.043Z,94671.52
2023-12-22T04:07:16.054Z,94668.56
2023-12-22T04:08:16.181Z,94673.3
2023-12-22T04:09:16.046Z,94668.65
2023-12-22T04:10:17.416Z,94669.72
2023-12-22T04:11:16.548Z,94669.17
2023-12-22T04:12:16.539Z,94667.12
2023-12-22T04:13:16.845Z,94667.59
2023-12-22T04:14:16.589Z,94668.41
2023-12-22T04:15:16.597Z,94660.31
2023-12-22T04:16:16.645Z,94659.76
2023-12-22T04:17:16.660Z,94664.09
2023-12-22T04:18:16.805Z,94659.6
2023-12-22T04:19:16.854Z,94661.8
2023-12-22T04:20:16.822Z,94663.28
2023-12-22T04:21:16.803Z,94664.59
2023-12-22T04:22:16.729Z,94654.88
2023-12-22T04:23:16.683Z,94659.7
2023-12-22T04:24:16.691Z,94659.78
2023-12-22T04:25:16.757Z,94660.99
2023-12-22T04:26:16.760Z,94656.66
2023-12-22T04:27:16.759Z,94659.2
2023-12-22T04:28:17.006Z,94657.25
2023-12-22T04:29:16.795Z,94655.61
2023-12-22T04:30:16.829Z,94657.16
2023-12-22T04:31:16.826Z,94658.31
2023-12-22T04:32:16.857Z,94653.25
2023-12-22T04:33:16.865Z,94655.03
2023-12-22T04:34:17.083Z,94660.98
2023-12-22T04:35:16.864Z,94662.3
2023-12-22T04:36:16.925Z,94655.52
2023-12-22T04:37:16.920Z,94660.67
2023-12-22T04:38:16.892Z,94662.95
2023-12-22T04:39:16.895Z,94661.64
2023-12-22T04:40:17.026Z,94660.27
2023-12-22T04:41:16.933Z,94658.94
2023-12-22T04:42:16.960Z,94659.69
2023-12-22T04:43:16.971Z,94654.62
2023-12-22T04:44:16.971Z,94652.41
2023-12-22T04:45:16.968Z,94657.07
2023-12-22T04:46:17.072Z,94656.73
2023-12-22T04:47:17.050Z,94654.06
2023-12-22T04:48:17.125Z,94648.48
2023-12-22T04:49:17.160Z,94652.33
2023-12-22T04:50:17.187Z,94655.59
2023-12-22T04:51:17.059Z,94659.77
2023-12-22T04:52:17.100Z,94656.43
2023-12-22T04:53:17.216Z,94650.06
2023-12-22T04:54:17.103Z,94652.02
2023-12-22T04:55:17.124Z,94652.34
2023-12-22T04:56:17.168Z,94647.36
2023-12-22T04:57:18.967Z,94650.62
2023-12-22T04:58:17.172Z,94644.66
2023-12-22T04:59:17.168Z,94643.94
2023-12-22T05:00:17.334Z,94642.12
2023-12-22T05:01:17.304Z,94642.88
2023-12-22T05:02:17.220Z,94644
2023-12-22T05:03:17.261Z,94645
2023-12-22T05:04:17.311Z,94640.5
2023-12-22T05:05:17.242Z,94648.44
2023-12-22T05:06:17.275Z,94643.52
2023-12-22T05:07:17.355Z,94643.36
2023-12-22T05:08:17.271Z,94648.09
2023-12-22T05:09:17.320Z,94649.55
2023-12-22T05:10:17.502Z,94653.23
2023-12-22T05:11:17.409Z,94654.45
2023-12-22T05:12:17.363Z,94659.01
2023-12-22T05:13:17.466Z,94648.57
2023-12-22T05:14:17.340Z,94651.91
2023-12-22T05:15:17.389Z,94649.08
2023-12-22T05:16:17.401Z,94653.57
2023-12-22T05:17:17.394Z,94658.8
2023-12-22T05:18:17.606Z,94653.39
2023-12-22T05:19:17.468Z,94651.83
2023-12-22T05:20:17.451Z,94657.95
2023-12-22T05:21:17.433Z,94655.85
2023-12-22T05:22:17.509Z,94652.58
2023-12-22T05:23:17.492Z,94663.44
2023-12-22T05:24:17.497Z,94658.78
2023-12-22T05:25:17.627Z,94658.69
2023-12-22T05:26:23.268Z,94663.92
2023-12-22T05:27:19.594Z,94658.84
2023-12-22T05:28:19.516Z,94656.91
2023-12-22T05:29:19.472Z,94660.33
2023-12-22T05:30:19.522Z,94663.02
2023-12-22T05:31:19.548Z,94660.56
2023-12-22T05:32:19.517Z,94662.27
2023-12-22T05:33:19.539Z,94664.32
2023-12-22T05:34:19.618Z,94667.16
2023-12-22T05:35:19.706Z,94660.38
2023-12-22T05:36:19.638Z,94666.44
2023-12-22T05:37:19.617Z,94668.39
2023-12-22T05:38:19.604Z,94668.81
2023-12-22T05:39:19.588Z,94674.27
2023-12-22T05:40:19.834Z,94673.78
2023-12-22T05:41:19.641Z,94680.88
2023-12-22T05:42:19.647Z,94682.42
2023-12-22T05:43:19.710Z,94687.24
2023-12-22T05:44:19.725Z,94682.66
2023-12-22T05:45:19.816Z,94681.03
2023-12-22T05:46:19.719Z,94686.27
2023-12-22T05:47:19.941Z,94682.69
2023-12-22T05:48:19.884Z,94683.41
2023-12-22T05:49:19.871Z,94687.4
2023-12-22T05:50:19.982Z,94688.14
2023-12-22T05:51:19.808Z,94689.95
2023-12-22T05:52:19.844Z,94692.08
2023-12-22T05:53:19.808Z,94687.73
2023-12-22T05:54:19.833Z,94686.17
2023-12-22T05:55:19.836Z,94687.23
2023-12-22T05:56:20.607Z,94687.47
2023-12-22T05:57:19.848Z,94685.16
2023-12-22T05:58:19.968Z,94686.3
2023-12-22T05:59:19.896Z,94684.2
2023-12-22T06:00:20.017Z,94685.34
2023-12-22T06:01:20.095Z,94689.02
2023-12-22T06:02:20.031Z,94691.16
2023-12-22T06:03:19.950Z,94690.77
2023-12-22T06:04:19.987Z,94692.61
2023-12-22T06:05:20.071Z,94693.89
2023-12-22T06:06:20.022Z,94686.33
2023-12-22T06:07:19.975Z,94692.54
2023-12-22T06:08:19.962Z,94693.69
2023-12-22T06:09:20.301Z,94689.52
2023-12-22T06:10:20.051Z,94695.8
2023-12-22T06:11:20.002Z,94700.59
2023-12-22T06:12:20.042Z,94698.48
2023-12-22T06:13:20.141Z,94704.45
2023-12-22T06:14:20.071Z,94706.89
2023-12-22T06:15:20.063Z,94706.95
2023-12-22T06:16:20.977Z,94713.27
2023-12-22T06:17:20.102Z,94709.02
2023-12-22T06:18:20.170Z,94710.09
2023-12-22T06:19:20.434Z,94701.34
2023-12-22T06:20:20.133Z,94704.3
2023-12-22T06:21:20.156Z,94702.02
2023-12-22T06:22:20.157Z,94703
2023-12-22T06:23:20.185Z,94705.61
2023-12-22T06:24:20.197Z,94707.89
2023-12-22T06:25:20.393Z,94704.03
2023-12-22T06:26:20.276Z,94705.67
2023-12-22T06:27:20.227Z,94709.93
2023-12-22T06:28:20.253Z,94709.93
2023-12-22T06:29:20.277Z,94709.61
2023-12-22T06:30:20.297Z,94712.05
2023-12-22T06:31:21.081Z,94713.77
2023-12-22T06:32:20.308Z,94713.99
2023-12-22T06:33:20.360Z,94716.7
2023-12-22T06:34:20.344Z,94719.01
2023-12-22T06:35:20.340Z,94713.6
2023-12-22T06:36:23.949Z,94709.77
2023-12-22T06:37:20.377Z,94715.04
2023-12-22T06:38:20.888Z,94713.69
2023-12-22T06:39:20.448Z,94719.42
2023-12-22T06:40:20.616Z,94720.9
2023-12-22T06:41:23.453Z,94718.41
2023-12-22T06:42:21.397Z,94717.77
2023-12-22T06:43:21.142Z,94720.72
2023-12-22T06:44:21.130Z,94717.19
2023-12-22T06:45:21.139Z,94723.65
2023-12-22T06:46:24.590Z,94721.53
2023-12-22T06:47:21.348Z,94724.09
2023-12-22T06:48:21.369Z,94727.88
2023-12-22T06:49:21.333Z,94733.68
2023-12-22T06:50:21.315Z,94732.2
2023-12-22T06:51:22.193Z,94738.73
2023-12-22T06:52:21.346Z,94739.72
2023-12-22T06:53:25.853Z,94745.25
2023-12-22T06:54:22.712Z,94749.93
2023-12-22T06:55:22.759Z,94749.59
2023-12-22T06:56:23.825Z,94752.45
2023-12-22T06:57:24.308Z,94751.55
2023-12-22T06:58:22.984Z,94754.41
2023-12-22T06:59:23.858Z,94755.03
2023-12-22T07:00:22.810Z,94757.25
2023-12-22T07:01:23.987Z,94754.22
2023-12-22T07:02:24.403Z,94759.12
2023-12-22T07:03:22.878Z,94760.92
2023-12-22T07:05:30.493Z,94764.59
2023-12-22T07:06:34.020Z,94766.31
2023-12-22T07:07:30.696Z,94769.91
2023-12-22T07:08:30.679Z,94764.44
2023-12-22T07:09:31.317Z,94775.05
2023-12-22T07:10:30.760Z,94775.39
2023-12-22T07:11:37.673Z,94773.56
2023-12-22T07:12:35.078Z,94775.38
2023-12-22T07:13:35.109Z,94773.23
2023-12-22T07:14:35.940Z,94777.16
2023-12-22T07:15:35.107Z,94779.2
2023-12-22T07:16:35.274Z,94781.97
2023-12-22T07:17:35.547Z,94783.14
2023-12-22T07:18:38.421Z,94781.59
2023-12-22T07:19:35.139Z,94783.16
2023-12-22T07:20:35.110Z,94786.67
2023-12-22T07:21:35.289Z,94788.41
2023-12-22T07:22:35.203Z,94789.67
2023-12-22T07:23:35.239Z,94789.86
2023-12-22T07:24:35.251Z,94795.25
2023-12-22T07:25:36.458Z,94791.83
2023-12-22T07:26:35.267Z,94790.09
2023-12-22T07:27:35.228Z,94788.81
2023-12-22T07:28:35.631Z,94786.09
2023-12-22T07:29:35.281Z,94793.67
2023-12-22T07:30:35.887Z,94792.88
2023-12-22T07:31:35.340Z,94794.34
2023-12-22T07:32:35.376Z,94796.88
2023-12-22T07:33:35.391Z,94794.11
2023-12-22T07:34:38.521Z,94797.77
2023-12-22T07:35:35.567Z,94790.69
2023-12-22T07:36:40.720Z,94791.98
2023-12-22T07:37:36.703Z,94793.06
2023-12-22T07:38:36.342Z,94798.77
2023-12-22T07:39:37.000Z,94794.17
2023-12-22T07:40:35.626Z,94795.56
2023-12-22T07:41:36.656Z,94794.61
2023-12-22T07:42:35.624Z,94795.84
2023-12-22T07:43:36.119Z,94799.6
2023-12-22T07:44:35.678Z,94798.52
2023-12-22T07:45:40.684Z,94799.73
2023-12-22T07:46:37.310Z,94800.7
2023-12-22T07:47:37.401Z,94802.34
2023-12-22T07:48:37.509Z,94805.72
2023-12-22T07:49:37.446Z,94809.05
2023-12-22T07:50:37.477Z,94811.64
2023-12-22T07:51:37.464Z,94810.17
2023-12-22T07:52:37.455Z,94813.36
2023-12-22T07:53:37.430Z,94817.86
2023-12-22T07:54:37.718Z,94824.81
2023-12-22T07:55:37.519Z,94819.98
2023-12-22T07:56:37.471Z,94822.36
2023-12-22T07:57:38.012Z,94821.28
2023-12-22T07:58:37.508Z,94825.71
2023-12-22T07:59:37.705Z,94827.98
2023-12-22T08:00:37.555Z,94831.08
2023-12-22T08:01:37.532Z,94830.42
2023-12-22T08:02:37.559Z,94836.38
2023-12-22T08:03:37.556Z,94838.83
2023-12-22T08:04:37.575Z,94836
2023-12-22T08:05:37.611Z,94841.08
2023-12-22T08:06:37.797Z,94840.94
2023-12-22T08:07:38.293Z,94838.46
2023-12-22T08:08:38.238Z,94838.55
2023-12-22T08:09:38.485Z,94838.82
2023-12-22T08:10:38.285Z,94841.23
2023-12-22T08:11:38.302Z,94841.47
2023-12-22T08:12:38.209Z,94844.65
2023-12-22T08:13:38.353Z,94842.78
2023-12-22T08:14:38.250Z,94851.8
2023-12-22T08:15:38.432Z,94845.77
2023-12-22T08:16:38.348Z,94849.05
2023-12-22T08:17:38.440Z,94849.86
2023-12-22T08:18:38.447Z,94851.9
2023-12-22T08:19:39.155Z,94853.26
2023-12-22T08:20:41.796Z,94858.09
2023-12-22T08:21:45.052Z,94854.39
2023-12-22T08:22:45.946Z,94855.88
2023-12-22T08:23:45.791Z,94857.72
2023-12-22T08:24:47.511Z,94854.77
2023-12-22T08:25:47.809Z,94851.59
2023-12-22T08:26:47.526Z,94856.45
2023-12-22T08:27:47.768Z,94848.31
2023-12-22T08:28:47.556Z,94857.14
2023-12-22T08:29:47.561Z,94861.63
2023-12-22T08:30:47.549Z,94860.66
2023-12-22T08:31:47.690Z,94857.48
2023-12-22T08:32:47.628Z,94860.16
2023-12-22T08:33:47.630Z,94862.15
2023-12-22T08:34:47.590Z,94859.61
2023-12-22T08:35:47.611Z,94857.48
2023-12-22T08:36:47.861Z,94856.45
2023-12-22T08:37:48.008Z,94854.2
2023-12-22T08:38:48.019Z,94857.19
2023-12-22T08:39:47.664Z,94858.16
2023-12-22T08:40:47.697Z,94858.31
2023-12-22T08:41:48.020Z,94862.75
2023-12-22T08:42:47.933Z,94859.41
2023-12-22T08:43:47.783Z,94858.19
2023-12-22T08:44:47.782Z,94858.09
2023-12-22T08:45:47.724Z,94859.48
2023-12-22T08:46:47.826Z,94862.09
2023-12-22T08:47:48.248Z,94860.55
2023-12-22T08:48:47.828Z,94857.95
2023-12-22T08:49:47.856Z,94867.33
2023-12-22T08:50:47.827Z,94862.93
2023-12-22T08:51:47.804Z,94859.91
2023-12-22T08:52:47.959Z,94857.44
2023-12-22T08:53:47.882Z,94853.07
2023-12-22T08:54:49.053Z,94851.75
2023-12-22T08:55:47.918Z,94854.7
2023-12-22T08:56:47.908Z,94856.11
2023-12-22T08:57:53.513Z,94859.03
2023-12-22T08:58:54.669Z,94857.06
2023-12-22T08:59:51.481Z,94855.77
2023-12-22T09:00:51.462Z,94857.88
2023-12-22T09:01:51.496Z,94854.64
2023-12-22T09:02:51.490Z,94856.09
2023-12-22T09:03:51.795Z,94862.81
2023-12-22T09:04:56.621Z,94860.86
2023-12-22T09:05:53.931Z,94859.82
2023-12-22T09:06:53.896Z,94855.98
2023-12-22T09:07:54.233Z,94857.59
2023-12-22T09:08:54.379Z,94853.58
2023-12-22T09:09:53.964Z,94855.2
2023-12-22T09:10:54.182Z,94861.17
2023-12-22T09:11:53.996Z,94857.15
2023-12-22T09:12:53.984Z,94855.34
2023-12-22T09:13:54.127Z,94852.58
2023-12-22T09:14:54.022Z,94850.72
2023-12-22T09:15:54.017Z,94846.96
2023-12-22T09:16:54.306Z,94850.86
2023-12-22T09:17:54.428Z,94847.2
2023-12-22T09:18:54.533Z,94847.62
2023-12-22T09:19:54.211Z,94843.84
2023-12-22T09:20:54.123Z,94841.41
2023-12-22T09:21:54.175Z,94846.78
2023-12-22T09:22:54.224Z,94842.64
2023-12-22T09:23:54.144Z,94840.03
2023-12-22T09:24:54.163Z,94837.48
2023-12-22T09:25:54.297Z,94837.16
2023-12-22T09:26:54.184Z,94843.45
2023-12-22T09:27:54.281Z,94843.78
2023-12-22T09:28:54.326Z,94850.1
2023-12-22T09:29:54.253Z,94844.4
2023-12-22T09:30:54.293Z,94849.32
2023-12-22T09:31:54.317Z,94846.12
2023-12-22T09:32:54.462Z,94845.8
2023-12-22T09:33:54.548Z,94850.77
2023-12-22T09:34:54.359Z,94852.84
2023-12-22T09:35:54.455Z,94847.52
2023-12-22T09:36:54.931Z,94852.48
2023-12-22T09:37:54.494Z,94854.96
2023-12-22T09:38:54.963Z,94840.95
2023-12-22T09:39:54.983Z,94860.66
2023-12-22T09:40:55.064Z,94853.39
2023-12-22T09:41:55.098Z,94853.66
2023-12-22T09:42:58.682Z,94848.34
2023-12-22T09:43:57.062Z,94848.64
2023-12-22T09:44:56.357Z,94844.55
2023-12-22T09:45:56.413Z,94841.28
2023-12-22T09:46:56.721Z,94841.28
2023-12-22T09:47:56.193Z,94839.83
2023-12-22T09:48:55.462Z,94841.3
2023-12-22T09:49:55.630Z,94844.4
2023-12-22T09:50:55.680Z,94847.43
2023-12-22T09:51:57.577Z,94842.75
2023-12-22T09:52:55.559Z,94845.04
2023-12-22T09:53:57.535Z,94850.44
2023-12-22T09:54:56.758Z,94845.66
2023-12-22T09:55:56.009Z,94845.14
2023-12-22T09:56:55.805Z,94848.67
2023-12-22T09:57:57.171Z,94847.62
2023-12-22T09:58:57.108Z,94838.47
2023-12-22T09:59:56.556Z,94832.51
2023-12-22T10:00:55.882Z,94828.77
2023-12-22T10:01:56.062Z,94827.05
2023-12-22T10:02:55.723Z,94826.39
2023-12-22T10:03:55.669Z,94823.89
2023-12-22T10:04:55.780Z,94820.3
2023-12-22T10:05:55.868Z,94824.87
2023-12-22T10:06:58.874Z,94820.13
2023-12-22T10:07:56.482Z,94827.89
2023-12-22T10:08:56.403Z,94826.84
2023-12-22T10:09:56.506Z,94829.53
2023-12-22T10:10:56.146Z,94838.67
2023-12-22T10:11:55.911Z,94833.53
2023-12-22T10:12:56.755Z,94829.77
2023-12-22T10:13:56.235Z,94823.7
2023-12-22T10:14:55.863Z,94825.59
2023-12-22T10:15:56.112Z,94819.38
2023-12-22T10:16:55.921Z,94826.99
2023-12-22T10:17:55.888Z,94829.53
2023-12-22T10:18:55.989Z,94831.66
2023-12-22T10:19:55.933Z,94827.89
2023-12-22T10:20:55.950Z,94827.41
2023-12-22T10:21:55.937Z,94829.29
2023-12-22T10:22:55.946Z,94830.01
2023-12-22T10:23:55.897Z,94825.52
2023-12-22T10:24:56.095Z,94829.51
2023-12-22T10:25:58.323Z,94832.38
2023-12-22T10:26:57.536Z,94828.47
2023-12-22T10:27:56.197Z,94829.28
2023-12-22T10:28:56.094Z,94827.77
2023-12-22T10:29:56.740Z,94827.82
2023-12-22T10:30:56.851Z,94825.77
2023-12-22T10:31:56.126Z,94826.5
2023-12-22T10:32:56.282Z,94826.57
2023-12-22T10:33:56.079Z,94827.55
2023-12-22T10:34:56.845Z,94826.57
2023-12-22T10:35:56.140Z,94824.53
2023-12-22T10:36:56.331Z,94825.52
2023-12-22T10:37:56.362Z,94831
2023-12-22T10:38:56.184Z,94824.7
2023-12-22T10:39:56.212Z,94828.53
2023-12-22T10:40:56.297Z,94832.39
2023-12-22T10:41:57.002Z,94829.78
2023-12-22T10:42:56.300Z,94833.78
2023-12-22T10:43:56.290Z,94830.41
2023-12-22T10:44:57.471Z,94829.02
2023-12-22T10:45:56.457Z,94828.2
2023-12-22T10:46:59.577Z,94827.15
2023-12-22T10:47:56.494Z,94827
2023-12-22T10:48:57.020Z,94832.31
2023-12-22T10:49:56.419Z,94828.03
2023-12-22T10:50:56.434Z,94831.46
2023-12-22T10:51:56.460Z,94830.95
2023-12-22T10:52:56.485Z,94831.39
2023-12-22T10:53:57.327Z,94831.78
2023-12-22T10:54:58.044Z,94834.17
2023-12-22T10:55:57.430Z,94828.36
2023-12-22T10:56:59.733Z,94832.67
2023-12-22T10:57:56.578Z,94823.42
2023-12-22T10:58:57.559Z,94826.7
2023-12-22T10:59:58.560Z,94825.23
2023-12-22T11:00:58.855Z,94826.22
2023-12-22T11:02:02.306Z,94819.94
2023-12-22T11:03:01.719Z,94824.1
2023-12-22T11:04:02.127Z,94827.72
2023-12-22T11:05:03.006Z,94821.57
2023-12-22T11:06:03.915Z,94828.26
2023-12-22T11:07:03.465Z,94828.86
2023-12-22T11:08:02.455Z,94832.47
2023-12-22T11:09:00.835Z,94823.62
2023-12-22T11:10:03.474Z,94824.52
2023-12-22T11:11:05.607Z,94825.17
2023-12-22T11:12:02.677Z,94821.75
2023-12-22T11:13:03.455Z,94820.27
2023-12-22T11:14:02.620Z,94817.31
2023-12-22T11:15:05.918Z,94816.03
2023-12-22T11:16:02.779Z,94816.77
2023-12-22T11:17:03.333Z,94816.94
2023-12-22T11:18:02.978Z,94818.08
2023-12-22T11:19:03.911Z,94822.98
2023-12-22T11:20:04.097Z,94818.5
2023-12-22T11:21:06.637Z,94820.52
2023-12-22T11:22:04.903Z,94819.28
2023-12-22T11:23:04.873Z,94822.5
2023-12-22T11:24:04.085Z,94823.64
2023-12-22T11:25:03.786Z,94826.73
2023-12-22T11:26:05.493Z,94823.64
2023-12-22T11:27:03.916Z,94823.38
2023-12-22T11:28:04.663Z,94820.3
2023-12-22T11:29:03.754Z,94823.56
2023-12-22T11:30:05.068Z,94823.48
2023-12-22T11:31:03.959Z,94823.15
2023-12-22T11:32:05.179Z,94821.52
2023-12-22T11:33:05.283Z,94816.12
2023-12-22T11:34:11.712Z,94816.11
2023-12-22T11:35:06.544Z,94815.77
2023-12-22T11:36:09.336Z,94813.31
2023-12-22T11:37:08.169Z,94815.13
2023-12-22T11:38:08.658Z,94819.06
2023-12-22T11:39:07.960Z,94816.44
2023-12-22T11:40:08.445Z,94817.59
2023-12-22T11:41:10.181Z,94820.45
2023-12-22T11:42:12.519Z,94817.33
2023-12-22T11:43:09.426Z,94816.12
2023-12-22T11:44:09.500Z,94811.47
2023-12-22T11:45:12.556Z,94813.59
2023-12-22T11:46:09.500Z,94811.63
2023-12-22T11:47:10.189Z,94808.34
2023-12-22T11:48:09.964Z,94804.59
2023-12-22T11:49:09.407Z,94806.81
2023-12-22T11:50:10.005Z,94809.52
2023-12-22T11:51:18.604Z,94808.86
2023-12-22T11:52:13.820Z,94819.72
2023-12-22T11:53:23.292Z,94817.12
2023-12-22T11:56:20.694Z,94815.72